Netherland Tide — YJVY9 — position and weather

sailwx.info

Track history (hours):
 
Tides and Currents Weather Stations Pressure Air Temp Water Temp Dewpoint Dewpoint Depression Visibility Wind Speed Wind Dir Waves Ship Positions

Netherland Tide

Last reported at 2018-Jun-11 02:30 UTC. Time now 2018-Jun-21 16:25 UTC.
Position S 05°37' E 011°55'.
Warning: this ship's position is 10 days out of date.

Length 70 m; draft 4.8 m.

Type: Tug. MMSI: 576212000.

Date/timePositionNaut miles runAvg speedWind from/ knotsBaromVisibWave heightAir tempDewpointWater temp
2018-Jun-11 02:30S 05°37' E 011°55'0 0.1
2018-Jun-11 02:00S 05°37' E 011°55'0 0.0
2018-Jun-10 23:08S 05°37' E 011°55'0 0.0
2018-Jun-10 22:56S 05°37' E 011°55'0 0.0
2018-Jun-10 22:29S 05°37' E 011°55'0 0.0
2018-Jun-10 21:59S 05°37' E 011°55'0 0.0
2018-Jun-10 21:29S 05°37' E 011°55'0 0.0
2018-Jun-10 20:59S 05°37' E 011°55'0 0.0
2018-Jun-10 20:25S 05°37' E 011°55'0 0.0
2018-Jun-10 19:42S 05°37' E 011°55'0 0.0
2018-Jun-10 19:30S 05°37' E 011°55'0 0.0
2018-Jun-10 19:00S 05°37' E 011°55'0 0.0
2018-Jun-10 18:29S 05°37' E 011°55'0 0.0
2018-Jun-10 10:51S 05°37' E 011°55'20 1.2
2018-Jun-09 18:20S 05°24' E 012°10'  
2018-Jun-05 20:00S 06°54' E 012°15'1113.2
2018-Jun-05 19:12S 07°04' E 012°16'313.2
2018-Jun-05 19:00S 07°07' E 012°16'612.9
2018-Jun-05 18:30S 07°13' E 012°17'4 8.0
2018-Jun-05 18:00S 07°17' E 012°18'5 9.8
2018-Jun-05 17:30S 07°22' E 012°18'611.5
2018-Jun-05 17:00S 07°28' E 012°19'612.4
2018-Jun-05 16:30S 07°34' E 012°21'4 8.6
2018-Jun-05 16:01S 07°38' E 012°22'4 8.4
2018-Jun-05 15:29S 07°42' E 012°24'  
Track history (hours):
 
Tides and Currents Weather Stations Pressure Air Temp Water Temp Dewpoint Dewpoint Depression Visibility Wind Speed Wind Dir Waves Ship Positions

Netherland Tide

Last reported at 2018-Jun-11 02:30 UTC. Time now 2018-Jun-21 16:25 UTC.
Position S 05°37' E 011°55'.
Warning: this ship's position is 10 days out of date.

Length 70 m; draft 4.8 m.

Type: Tug. MMSI: 576212000.

Date/timePositionNaut miles runAvg speedWind from/ knotsBaromVisibWave heightAir tempDewpointWater temp
2018-Jun-11 02:30S 05°37' E 011°55'0 0.1
2018-Jun-11 02:00S 05°37' E 011°55'0 0.0
2018-Jun-10 23:08S 05°37' E 011°55'0 0.0
2018-Jun-10 22:56S 05°37' E 011°55'0 0.0
2018-Jun-10 22:29S 05°37' E 011°55'0 0.0
2018-Jun-10 21:59S 05°37' E 011°55'0 0.0
2018-Jun-10 21:29S 05°37' E 011°55'0 0.0
2018-Jun-10 20:59S 05°37' E 011°55'0 0.0
2018-Jun-10 20:25S 05°37' E 011°55'0 0.0
2018-Jun-10 19:42S 05°37' E 011°55'0 0.0
2018-Jun-10 19:30S 05°37' E 011°55'0 0.0
2018-Jun-10 19:00S 05°37' E 011°55'0 0.0
2018-Jun-10 18:29S 05°37' E 011°55'0 0.0
2018-Jun-10 10:51S 05°37' E 011°55'20 1.2
2018-Jun-09 18:20S 05°24' E 012°10'  
2018-Jun-05 20:00S 06°54' E 012°15'1113.2
2018-Jun-05 19:12S 07°04' E 012°16'313.2
2018-Jun-05 19:00S 07°07' E 012°16'612.9
2018-Jun-05 18:30S 07°13' E 012°17'4 8.0
2018-Jun-05 18:00S 07°17' E 012°18'5 9.8
2018-Jun-05 17:30S 07°22' E 012°18'611.5
2018-Jun-05 17:00S 07°28' E 012°19'612.4
2018-Jun-05 16:30S 07°34' E 012°21'4 8.6
2018-Jun-05 16:01S 07°38' E 012°22'4 8.4
2018-Jun-05 15:29S 07°42' E 012°24'  

Dump ship's entire track history